createdAt,value
2019-05-13T00:03:16.855Z,103062.35
2019-05-13T00:07:20.434Z,103057.83
2019-05-13T00:11:24.067Z,103060.51
2019-05-13T00:15:27.927Z,103058.44
2019-05-13T00:19:33.718Z,103067.58
2019-05-13T00:23:36.670Z,103062.09
2019-05-13T00:27:40.158Z,103059.16
2019-05-13T00:31:43.965Z,103058.29
2019-05-13T00:35:48.347Z,103061.70
2019-05-13T00:39:54.186Z,103052.44
2019-05-13T00:43:57.074Z,103055.52
2019-05-13T00:48:00.549Z,103062.42
2019-05-13T00:52:04.313Z,103064.21
2019-05-13T00:56:07.800Z,103064.63
2019-05-13T01:00:14.134Z,103063.83
2019-05-13T01:04:17.094Z,103059.46
2019-05-13T01:08:23.705Z,103059.56
2019-05-13T01:12:26.896Z,103058.36
2019-05-13T01:16:30.373Z,103066.06
2019-05-13T01:20:34.772Z,103068.72
2019-05-13T01:24:38.375Z,103073.33
2019-05-13T01:28:43.599Z,103071.28
2019-05-13T01:32:47.190Z,103073.02
2019-05-13T01:36:50.677Z,103062.27
2019-05-13T01:40:54.223Z,103068.64
2019-05-13T01:44:57.700Z,103065.67
2019-05-13T01:49:01.179Z,103069.89
2019-05-13T01:53:04.743Z,103065.66
2019-05-13T01:57:08.242Z,103068.28
2019-05-13T02:01:13.752Z,103063.72
2019-05-13T02:05:17.011Z,103064.15
2019-05-13T02:09:24.320Z,103068.83
2019-05-13T02:13:27.243Z,103072.30
2019-05-13T02:17:30.735Z,103066.73
2019-05-13T02:21:34.282Z,103070.98
2019-05-13T02:25:38.124Z,103071.55
2019-05-13T02:29:43.664Z,103079.61
2019-05-13T02:33:47.168Z,103073.69
2019-05-13T02:37:52.539Z,103072.86
2019-05-13T02:41:55.954Z,103080.20
2019-05-13T02:46:04.224Z,103083.52
2019-05-13T02:50:07.462Z,103091.28
2019-05-13T02:54:12.357Z,103091.31
2019-05-13T02:58:16.163Z,103095.91
2019-05-13T03:02:22.206Z,103097.66
2019-05-13T03:06:24.940Z,103098.56
2019-05-13T03:10:28.444Z,103102.02
2019-05-13T03:14:32.506Z,103102.35
2019-05-13T03:18:36.120Z,103106.70
2019-05-13T03:22:43.116Z,103108.41
2019-05-13T03:26:45.240Z,103113.95
2019-05-13T03:30:48.821Z,103107.94
2019-05-13T03:34:56.046Z,103113.75
2019-05-13T03:39:05.762Z,103126.56
2019-05-13T03:43:04.626Z,103133.00
2019-05-13T03:47:12.622Z,103134.63
2019-05-13T03:51:16.354Z,103138.81
2019-05-13T03:55:23.129Z,103135.34
2019-05-13T03:59:25.778Z,103138.98
2019-05-13T04:03:29.310Z,103138.08
2019-05-13T04:07:33.135Z,103145.50
2019-05-13T04:11:37.473Z,103148.45
2019-05-13T04:15:42.837Z,103145.75
2019-05-13T04:19:46.538Z,103149.94
2019-05-13T04:23:53.038Z,103141.39
2019-05-13T04:27:57.351Z,103143.42
2019-05-13T04:32:02.224Z,103142.89
2019-05-13T04:36:06.018Z,103146.09
2019-05-13T04:40:12.699Z,103155.00
2019-05-13T04:44:15.109Z,103160.02
2019-05-13T04:48:22.944Z,103160.59
2019-05-13T04:52:25.997Z,103154.26
2019-05-13T04:56:32.749Z,103158.75
2019-05-13T05:00:49.649Z,103163.86
2019-05-13T05:05:03.231Z,103157.65
2019-05-13T05:09:28.484Z,103154.39
2019-05-13T05:14:02.752Z,103154.52
2019-05-13T05:18:32.948Z,103148.39
2019-05-13T05:22:42.653Z,103154.19
2019-05-13T05:27:05.987Z,103156.81
2019-05-13T05:31:32.528Z,103158.78
2019-05-13T05:35:48.297Z,103149.77
2019-05-13T05:39:55.047Z,103154.82
2019-05-13T05:44:02.325Z,103156.86
2019-05-13T05:48:08.317Z,103160.02
2019-05-13T05:52:12.465Z,103162.01
2019-05-13T05:56:17.503Z,103165.56
2019-05-13T06:00:21.988Z,103153.06
2019-05-13T06:04:28.635Z,103147.20
2019-05-13T06:08:32.387Z,103136.78
2019-05-13T06:12:36.542Z,103136.78
2019-05-13T06:16:42.560Z,103152.12
2019-05-13T06:20:46.001Z,103147.66
2019-05-13T06:24:52.005Z,103150.12
2019-05-13T06:28:55.074Z,103159.45
2019-05-13T06:32:58.555Z,103155.27
2019-05-13T06:37:02.263Z,103159.36
2019-05-13T06:41:10.881Z,103163.45
2019-05-13T06:45:12.388Z,103159.86
2019-05-13T06:49:16.096Z,103161.22
2019-05-13T06:53:21.725Z,103164.30
2019-05-13T06:57:25.189Z,103162.20
2019-05-13T07:01:28.670Z,103152.75
2019-05-13T07:05:32.174Z,103152.95
2019-05-13T07:09:35.764Z,103149.73
2019-05-13T07:13:39.324Z,103143.55
2019-05-13T07:17:43.145Z,103148.68
2019-05-13T07:21:46.926Z,103155.44
2019-05-13T07:25:52.455Z,103149.82
2019-05-13T07:29:55.843Z,103150.63
2019-05-13T07:34:02.086Z,103142.94
2019-05-13T07:38:05.322Z,103148.67
2019-05-13T07:42:08.802Z,103142.79
2019-05-13T07:46:12.763Z,103139.89
2019-05-13T07:50:16.284Z,103132.99
2019-05-13T07:54:22.029Z,103128.84
2019-05-13T07:58:24.990Z,103140.37
2019-05-13T08:02:28.475Z,103135.91
2019-05-13T08:06:32.454Z,103150.02
2019-05-13T08:10:36.659Z,103141.05
2019-05-13T08:14:43.279Z,103144.36
2019-05-13T08:18:45.705Z,103132.37
2019-05-13T08:22:51.859Z,103142.88
2019-05-13T08:26:54.577Z,103145.02
2019-05-13T08:30:58.112Z,103139.28
2019-05-13T08:35:08.697Z,103136.57
2019-05-13T08:39:12.601Z,103144.83
2019-05-13T08:43:15.656Z,103138.91
2019-05-13T08:47:19.138Z,103133.04
2019-05-13T08:51:22.739Z,103134.78
2019-05-13T08:55:26.570Z,103135.23
2019-05-13T08:59:31.757Z,103136.49
2019-05-13T09:03:35.460Z,103132.31
2019-05-13T09:07:41.279Z,103130.69
2019-05-13T09:11:44.272Z,103127.06
2019-05-13T09:15:47.828Z,103136.73
2019-05-13T09:19:52.126Z,103143.31
2019-05-13T09:23:56.175Z,103135.48
2019-05-13T09:28:02.431Z,103124.22
2019-05-13T09:32:04.882Z,103129.31
2019-05-13T09:36:08.643Z,103125.33
2019-05-13T09:40:12.284Z,103123.38
2019-05-13T09:44:15.755Z,103124.15
2019-05-13T09:48:22.228Z,103133.24
2019-05-13T09:52:25.372Z,103121.52
2019-05-13T09:56:28.914Z,103124.41
2019-05-13T10:00:35.593Z,103125.76
2019-05-13T10:04:43.202Z,103124.98
2019-05-13T10:08:44.290Z,103125.66
2019-05-13T10:13:07.299Z,103126.65
2019-05-13T10:16:53.488Z,103122.17
2019-05-13T10:21:01.983Z,103122.11
2019-05-13T10:25:07.777Z,103126.05
2019-05-13T10:29:12.245Z,103117.94
2019-05-13T10:33:15.803Z,103100.53
2019-05-13T10:37:21.998Z,103113.09
2019-05-13T10:41:25.544Z,103113.83
2019-05-13T10:45:29.023Z,103106.92
2019-05-13T10:49:33.297Z,103117.36
2019-05-13T10:53:37.191Z,103110.26
2019-05-13T10:57:42.414Z,103111.09
2019-05-13T11:01:46.046Z,103109.64
2019-05-13T11:05:52.614Z,103108.14
2019-05-13T11:09:56.345Z,103107.64
2019-05-13T11:14:10.695Z,103113.59
2019-05-13T11:18:05.743Z,103120.70
2019-05-13T11:22:12.112Z,103108.45
2019-05-13T11:26:14.744Z,103106.34
2019-05-13T11:30:21.550Z,103106.88
2019-05-13T11:34:23.828Z,103109.84
2019-05-13T11:38:27.344Z,103102.63
2019-05-13T11:42:32.775Z,103093.83
2019-05-13T11:46:37.061Z,103094.56
2019-05-13T11:50:42.924Z,103094.13
2019-05-13T11:54:46.233Z,103094.74
2019-05-13T11:58:53.234Z,103082.03
2019-05-13T12:02:55.308Z,103079.17
2019-05-13T12:06:58.788Z,103074.09
2019-05-13T12:11:04.137Z,103068.53
2019-05-13T12:15:38.173Z,103070.08
2019-05-13T12:19:13.001Z,103060.87
2019-05-13T12:23:16.508Z,103066.95
2019-05-13T12:27:20.291Z,103066.63
2019-05-13T12:31:23.778Z,103067.91
2019-05-13T12:35:27.355Z,103069.66
2019-05-13T12:39:32.049Z,103053.66
2019-05-13T12:43:37.172Z,103042.97
2019-05-13T12:47:48.868Z,103054.27
2019-05-13T12:56:23.168Z,103037.47
2019-05-13T13:05:10.902Z,103031.52
2019-05-13T13:09:16.565Z,103022.32
2019-05-13T13:13:52.567Z,103018.48
2019-05-13T13:17:32.298Z,103019.37
2019-05-13T13:21:37.931Z,103010.47
2019-05-13T13:30:53.011Z,103012.31
2019-05-13T13:34:57.900Z,103003.62
2019-05-13T13:39:05.226Z,102982.59
2019-05-13T13:43:13.134Z,102987.30
2019-05-13T13:47:24.026Z,102972.58
2019-05-13T13:55:55.812Z,102975.22
2019-05-13T14:00:26.370Z,102974.27
2019-05-13T14:04:24.429Z,102972.23
2019-05-13T14:08:29.480Z,102976.56
2019-05-13T14:12:43.550Z,102967.80
2019-05-13T14:16:53.475Z,102970.77
2019-05-13T14:20:59.875Z,102968.95
2019-05-13T14:25:16.561Z,102965.80
2019-05-13T14:29:38.565Z,102949.94
2019-05-13T14:38:02.458Z,102942.69
2019-05-13T14:46:52.558Z,102948.78
2019-05-13T14:51:03.327Z,102950.75
2019-05-13T14:55:13.901Z,102950.09
2019-05-13T14:59:22.133Z,102945.77
2019-05-13T15:07:58.828Z,102940.81
2019-05-13T15:12:07.326Z,102941.08
2019-05-13T15:16:15.518Z,102940.45
2019-05-13T15:24:45.586Z,102946.75
2019-05-13T15:29:04.983Z,102945.72
2019-05-13T15:33:08.295Z,102941.80
2019-05-13T15:41:38.836Z,102930.32
2019-05-13T15:45:43.329Z,102930.50
2019-05-13T15:49:57.407Z,102930.50
2019-05-13T15:54:05.705Z,102935.11
2019-05-13T15:58:16.867Z,102936.78
2019-05-13T16:02:23.773Z,102935.05
2019-05-13T16:06:45.932Z,102935.13
2019-05-13T16:10:53.569Z,102930.30
2019-05-13T16:15:02.068Z,102924.14
2019-05-13T16:19:16.264Z,102935.36
2019-05-13T16:28:32.625Z,102917.50
2019-05-13T16:32:38.916Z,102919.75
2019-05-13T16:41:51.699Z,102925.66
2019-05-13T16:46:03.091Z,102921.02
2019-05-13T16:50:12.297Z,102922.58
2019-05-13T16:54:18.241Z,102921.41
2019-05-13T17:03:32.782Z,102925.65
2019-05-13T17:12:45.104Z,102929.38
2019-05-13T17:16:53.446Z,102927.61
2019-05-13T17:21:01.424Z,102928.50
2019-05-13T17:25:12.674Z,102922.35
2019-05-13T17:29:18.040Z,102924.64
2019-05-13T17:33:36.129Z,102930.90
2019-05-13T17:37:48.527Z,102933.25
2019-05-13T17:41:57.213Z,102934.80
2019-05-13T17:46:07.043Z,102938.30
2019-05-13T17:50:13.315Z,102932.66
2019-05-13T17:54:25.411Z,102950.17
2019-05-13T17:58:52.639Z,102951.16
2019-05-13T18:03:06.309Z,102947.92
2019-05-13T18:07:21.485Z,102943.02
2019-05-13T18:11:39.099Z,102950.76
2019-05-13T18:15:42.526Z,102948.19
2019-05-13T18:19:45.970Z,102947.32
2019-05-13T18:23:52.098Z,102945.14
2019-05-13T18:27:55.692Z,102949.81
2019-05-13T18:32:01.938Z,102946.81
2019-05-13T18:36:06.256Z,102944.83
2019-05-13T18:40:11.625Z,102945.33
2019-05-13T18:44:15.661Z,102953.86
2019-05-13T18:48:21.880Z,102956.23
2019-05-13T18:52:26.192Z,102959.86
2019-05-13T18:56:32.241Z,102956.22
2019-05-13T19:00:38.075Z,102960.44
2019-05-13T19:04:41.953Z,102960.05
2019-05-13T19:08:45.558Z,102969.03
2019-05-13T19:12:49.046Z,102971.60
2019-05-13T19:16:52.807Z,102975.27
2019-05-13T19:20:56.244Z,102983.50
2019-05-13T19:25:01.120Z,102984.92
2019-05-13T19:29:04.757Z,102983.67
2019-05-13T19:33:08.183Z,102991.77
2019-05-13T19:37:12.012Z,102992.97
2019-05-13T19:41:15.437Z,102996.26
2019-05-13T19:45:18.971Z,102995.40
2019-05-13T19:49:32.190Z,103004.07
2019-05-13T19:53:28.101Z,103005.86
2019-05-13T19:57:31.866Z,103007.84
2019-05-13T20:01:35.347Z,103013.97
2019-05-13T20:05:41.240Z,103012.00
2019-05-13T20:09:44.899Z,103012.27
2019-05-13T20:13:48.682Z,103017.20
2019-05-13T20:17:52.220Z,103021.14
2019-05-13T20:21:56.168Z,103025.59
2019-05-13T20:25:59.680Z,103020.86
2019-05-13T20:30:03.190Z,103019.58
2019-05-13T20:34:06.855Z,103019.18
2019-05-13T20:38:11.555Z,103016.27
2019-05-13T20:42:15.560Z,103014.75
2019-05-13T20:46:19.365Z,103019.53
2019-05-13T20:50:22.888Z,103019.86
2019-05-13T20:54:26.653Z,103015.59
2019-05-13T20:58:31.903Z,103011.70
2019-05-13T21:02:35.259Z,103008.83
2019-05-13T21:06:38.705Z,103007.25
2019-05-13T21:10:42.634Z,103014.56
2019-05-13T21:14:46.074Z,103011.23
2019-05-13T21:18:49.500Z,103015.36
2019-05-13T21:22:54.980Z,103016.28
2019-05-13T21:52:18.352Z,103012.34
2019-05-13T21:56:22.977Z,103007.55
2019-05-13T22:10:31.975Z,103011.88
2019-05-13T22:14:35.389Z,103015.16
2019-05-13T22:18:38.847Z,103010.33
2019-05-13T22:22:42.284Z,103001.08
2019-05-13T22:26:45.724Z,102995.92
2019-05-13T22:30:51.640Z,102998.61
2019-05-13T22:34:54.655Z,102999.20
2019-05-13T22:38:58.466Z,102998.55
2019-05-13T22:43:01.915Z,103004.78
2019-05-13T22:47:05.339Z,103008.66
2019-05-13T22:51:08.799Z,102989.33
2019-05-13T22:55:12.399Z,102990.75
2019-05-13T22:59:15.830Z,102993.02
2019-05-13T23:03:19.513Z,102994.04
2019-05-13T23:07:23.234Z,102990.97
2019-05-13T23:11:26.740Z,102993.27
2019-05-13T23:15:30.463Z,102992.06
2019-05-13T23:19:34.344Z,102998.80
2019-05-13T23:23:38.128Z,102988.70
2019-05-13T23:27:42.126Z,102986.14
2019-05-13T23:31:45.576Z,102986.39
2019-05-13T23:35:49.328Z,102994.06
2019-05-13T23:39:52.748Z,102992.16
2019-05-13T23:43:56.221Z,102987.44
2019-05-13T23:48:01.572Z,102984.48
2019-05-13T23:52:04.822Z,102991.01
2019-05-13T23:56:08.528Z,102987.81
